Time;durP1;ratioP1;P1;durP2;ratioP2;P2;SDS_P1;SDS_P2;PMS_P1;PMS_P2;Temp;Humidity;BMP_temperature;BMP_pressure;BME280_temperature;BME280_humidity;BME280_pressure;Samples;Min_cycle;Max_cycle;Signal;HPM_P1;HPM_P2
2023/10/11 00:01:28;;;;;;;1.42;0.93;;;16.40;82.80;;;;;;4746354;30;20747;-77
2023/10/11 00:03:56;;;;;;;1.58;0.98;;;16.40;82.80;;;;;;4731625;30;20032;-77
2023/10/11 00:06:24;;;;;;;1.90;1.00;;;16.40;83.00;;;;;;4733356;30;20044;-76
2023/10/11 00:08:51;;;;;;;1.73;1.13;;;16.40;82.90;;;;;;4732811;30;20408;-77
2023/10/11 00:11:23;;;;;;;1.52;1.10;;;16.40;83.00;;;;;;4731562;30;20558;-76
2023/10/11 00:13:49;;;;;;;1.52;1.10;;;16.30;82.90;;;;;;4731695;30;20409;-77
2023/10/11 00:16:17;;;;;;;1.92;1.10;;;16.40;83.00;;;;;;4732604;30;20040;-76
2023/10/11 00:18:43;;;;;;;1.25;1.00;;;16.40;82.90;;;;;;4731902;30;20460;-76
2023/10/11 00:21:10;;;;;;;2.03;1.30;;;16.30;82.90;;;;;;4733009;30;20125;-76
2023/10/11 00:23:39;;;;;;;1.92;1.33;;;16.20;83.50;;;;;;4717258;30;20037;-76
2023/10/11 00:26:06;;;;;;;2.58;1.40;;;16.30;83.00;;;;;;4732359;30;20045;-76
2023/10/11 00:28:33;;;;;;;1.38;1.05;;;16.30;83.00;;;;;;4718031;30;20041;-76
2023/10/11 00:31:01;;;;;;;1.13;0.82;;;16.30;82.90;;;;;;4705427;30;20095;-76
2023/10/11 00:33:28;;;;;;;2.50;1.30;;;16.20;82.90;;;;;;4734147;30;20039;-76
2023/10/11 00:35:55;;;;;;;2.00;1.20;;;16.10;82.90;;;;;;4722141;30;20427;-76
2023/10/11 00:38:27;;;;;;;1.65;1.10;;;16.20;82.90;;;;;;4751982;30;20045;-75
2023/10/11 00:41:12;;;;;;;1.83;1.00;;;16.20;83.00;;;;;;4752601;30;20068;-76
2023/10/11 00:43:46;;;;;;;2.00;1.10;;;16.20;82.90;;;;;;4728815;30;20133;-77
2023/10/11 00:46:14;;;;;;;1.27;1.00;;;16.10;82.90;;;;;;4752307;30;20067;-76
2023/10/11 00:51:26;;;;;;;1.45;0.90;;;16.20;82.80;;;;;;4752213;30;20041;-77
2023/10/11 00:53:52;;;;;;;1.10;0.90;;;16.20;82.80;;;;;;4751635;30;20041;-75
2023/10/11 00:56:20;;;;;;;2.15;1.08;;;16.20;82.70;;;;;;4751975;30;20049;-75
2023/10/11 00:58:50;;;;;;;1.52;0.88;;;16.20;82.70;;;;;;4752348;30;20028;-76
2023/10/11 01:01:17;;;;;;;0.90;0.77;;;16.20;82.70;;;;;;4750477;30;20041;-76
2023/10/11 01:03:43;;;;;;;1.27;1.00;;;16.30;82.80;;;;;;4751312;30;20037;-76
2023/10/11 01:06:12;;;;;;;1.48;0.85;;;16.20;82.70;;;;;;4735192;30;20047;-76
2023/10/11 01:08:38;;;;;;;1.80;1.00;;;16.10;82.60;;;;;;4767035;30;20036;-76
2023/10/11 01:11:10;;;;;;;1.15;1.00;;;16.20;82.60;;;;;;4767600;30;20048;-76
2023/10/11 01:13:43;;;;;;;2.20;1.00;;;16.20;82.60;;;;;;4751649;30;20043;-76
2023/10/11 01:16:09;;;;;;;1.17;1.02;;;16.20;82.50;;;;;;4752077;30;20101;-75
2023/10/11 01:18:38;;;;;;;1.10;0.90;;;16.20;82.40;;;;;;4766500;30;20094;-75
2023/10/11 01:21:05;;;;;;;1.83;1.10;;;16.20;82.40;;;;;;4767542;30;20054;-76
2023/10/11 01:23:35;;;;;;;1.73;1.00;;;16.20;82.40;;;;;;4749646;30;20037;-76
2023/10/11 01:26:09;;;;;;;1.20;1.00;;;16.20;82.40;;;;;;4750189;30;20044;-75
2023/10/11 01:28:38;;;;;;;1.75;1.00;;;16.10;82.40;;;;;;4750713;30;20055;-76
2023/10/11 01:31:08;;;;;;;1.70;1.10;;;16.20;82.40;;;;;;4752321;30;20131;-76
2023/10/11 01:33:36;;;;;;;1.52;0.95;;;16.20;82.40;;;;;;4725737;30;20063;-76
2023/10/11 01:36:06;;;;;;;1.35;1.15;;;16.20;82.40;;;;;;4770916;30;20059;-76
2023/10/11 01:38:45;;;;;;;1.50;1.00;;;16.30;82.50;;;;;;4752481;30;20068;-76
2023/10/11 01:41:13;;;;;;;1.52;1.02;;;16.20;82.50;;;;;;4725865;30;20032;-75
2023/10/11 01:43:38;;;;;;;1.45;1.00;;;16.20;82.50;;;;;;4765127;30;20032;-76
2023/10/11 01:46:04;;;;;;;1.50;1.00;;;16.20;82.50;;;;;;4750972;30;20036;-75
2023/10/11 01:48:30;;;;;;;2.30;1.05;;;16.20;82.50;;;;;;4752043;30;20113;-75
2023/10/11 01:51:08;;;;;;;1.65;1.10;;;16.10;82.50;;;;;;4747209;30;20041;-75
2023/10/11 01:53:35;;;;;;;2.70;0.95;;;16.10;82.50;;;;;;4714769;30;20108;-75
2023/10/11 01:56:03;;;;;;;2.03;0.90;;;16.10;82.50;;;;;;4700783;30;20065;-76
2023/10/11 01:58:29;;;;;;;1.27;0.88;;;16.20;82.50;;;;;;4685715;30;20050;-76
2023/10/11 02:00:55;;;;;;;2.83;0.93;;;16.10;82.40;;;;;;4714325;30;20073;-76
2023/10/11 02:03:24;;;;;;;1.00;0.90;;;16.10;82.50;;;;;;4715752;30;20080;-76
2023/10/11 02:05:50;;;;;;;1.38;1.00;;;16.10;82.50;;;;;;4687288;30;20120;-76
2023/10/11 02:08:17;;;;;;;1.67;1.10;;;16.10;82.50;;;;;;4700043;30;20034;-76
2023/10/11 02:10:44;;;;;;;2.85;1.20;;;16.10;82.50;;;;;;4715366;30;20077;-77
2023/10/11 02:13:11;;;;;;;1.17;1.08;;;16.20;82.50;;;;;;4685745;30;20061;-76
2023/10/11 02:15:39;;;;;;;1.52;1.13;;;16.00;82.40;;;;;;4715670;30;20068;-76
2023/10/11 02:18:08;;;;;;;1.35;1.05;;;16.10;82.40;;;;;;4699234;30;20046;-76
2023/10/11 02:20:35;;;;;;;1.33;1.00;;;16.10;82.40;;;;;;4686663;30;20137;-76
2023/10/11 02:23:01;;;;;;;1.45;1.00;;;16.10;82.30;;;;;;4700321;30;20053;-76
2023/10/11 02:25:26;;;;;;;1.45;0.90;;;16.10;82.30;;;;;;4744327;30;20072;-76
2023/10/11 02:27:54;;;;;;;2.17;1.00;;;16.10;82.20;;;;;;4750229;30;20056;-76
2023/10/11 02:30:24;;;;;;;1.70;1.30;;;16.10;82.30;;;;;;4751849;30;20048;-76
2023/10/11 02:32:52;;;;;;;1.27;1.05;;;16.10;82.30;;;;;;4749590;30;20075;-76
2023/10/11 02:35:19;;;;;;;1.90;1.15;;;16.10;82.30;;;;;;4724716;30;20066;-76
2023/10/11 02:37:46;;;;;;;2.45;1.45;;;16.10;82.40;;;;;;4752870;30;20061;-77
2023/10/11 02:40:16;;;;;;;2.22;1.15;;;16.00;82.30;;;;;;4736579;30;20029;-76
2023/10/11 02:42:44;;;;;;;2.97;1.25;;;16.10;82.30;;;;;;4752730;30;20107;-77
2023/10/11 02:45:12;;;;;;;2.10;1.30;;;16.10;82.30;;;;;;4736469;30;20033;-76
2023/10/11 02:47:40;;;;;;;3.28;1.25;;;16.20;82.30;;;;;;4765710;30;20048;-76
2023/10/11 02:50:07;;;;;;;2.45;1.48;;;16.00;82.20;;;;;;4735647;30;20064;-76
2023/10/11 02:52:36;;;;;;;3.25;1.67;;;16.10;82.30;;;;;;4736329;30;20028;-76
2023/10/11 02:57:43;;;;;;;1.67;1.17;;;16.00;82.40;;;;;;4750881;30;20064;-76
2023/10/11 03:00:21;;;;;;;1.92;1.17;;;15.90;82.40;;;;;;4736814;30;20053;-76
2023/10/11 03:02:54;;;;;;;1.70;1.27;;;16.00;82.50;;;;;;4717112;30;20045;-76
2023/10/11 03:05:25;;;;;;;2.40;1.20;;;15.90;82.40;;;;;;4700390;30;20105;-76
2023/10/11 03:07:51;;;;;;;2.72;1.40;;;15.90;82.50;;;;;;4716723;30;20052;-76
2023/10/11 03:10:18;;;;;;;2.83;1.10;;;15.90;82.50;;;;;;4701733;30;20077;-76
2023/10/11 03:12:44;;;;;;;2.00;1.30;;;15.90;82.50;;;;;;4701816;30;20057;-77
2023/10/11 03:15:11;;;;;;;2.10;1.20;;;15.80;83.10;;;;;;4686751;30;20061;-76
2023/10/11 03:17:42;;;;;;;2.03;1.30;;;15.80;82.50;;;;;;4684069;30;20046;-76
2023/10/11 03:20:24;;;;;;;2.90;1.50;;;15.80;82.40;;;;;;4670328;30;20046;-76
2023/10/11 03:22:51;;;;;;;3.92;1.50;;;15.90;82.50;;;;;;4685226;30;20085;-75
2023/10/11 03:25:19;;;;;;;1.45;1.20;;;15.80;82.50;;;;;;4695878;30;20125;-76
2023/10/11 03:27:49;;;;;;;2.08;1.30;;;15.70;82.50;;;;;;4695988;30;20125;-76
2023/10/11 03:30:16;;;;;;;1.73;1.27;;;15.70;82.60;;;;;;4697744;30;20104;-75
2023/10/11 03:32:44;;;;;;;3.28;1.42;;;15.70;82.60;;;;;;4692714;30;20229;-76
2023/10/11 03:35:10;;;;;;;2.80;1.50;;;15.70;82.70;;;;;;4736753;30;20029;-76
2023/10/11 03:37:37;;;;;;;2.45;1.30;;;15.70;82.70;;;;;;4734206;30;20072;-77
2023/10/11 03:40:27;;;;;;;2.55;1.33;;;15.60;82.70;;;;;;4736293;30;20073;-76
2023/10/11 03:42:59;;;;;;;2.15;1.27;;;15.60;82.70;;;;;;4725082;30;20049;-76
2023/10/11 03:45:27;;;;;;;3.03;1.50;;;15.60;82.80;;;;;;4725098;30;20049;-76
2023/10/11 03:47:58;;;;;;;1.55;1.23;;;15.60;82.80;;;;;;4720720;30;20052;-75
2023/10/11 03:50:32;;;;;;;3.47;1.50;;;15.50;82.80;;;;;;4736618;30;20098;-76
2023/10/11 03:53:06;;;;;;;2.63;1.52;;;15.50;82.80;;;;;;4747416;30;20116;-75
2023/10/11 03:55:32;;;;;;;2.67;1.30;;;15.50;82.90;;;;;;4755741;30;20071;-74
2023/10/11 03:57:58;;;;;;;1.38;1.17;;;15.50;82.90;;;;;;4751218;30;20951;-75
2023/10/11 04:00:28;;;;;;;1.60;1.23;;;15.50;82.90;;;;;;4768136;30;20052;-75
2023/10/11 04:02:58;;;;;;;1.83;1.40;;;15.50;82.90;;;;;;4755676;30;20036;-76
2023/10/11 04:05:33;;;;;;;3.45;1.20;;;15.50;82.90;;;;;;4754769;30;20056;-75
2023/10/11 04:08:05;;;;;;;2.55;1.63;;;15.50;83.00;;;;;;4743598;30;20048;-76
2023/10/11 04:10:46;;;;;;;2.10;1.15;;;15.40;82.90;;;;;;4724618;30;20055;-75
2023/10/11 04:13:15;;;;;;;;;;;15.40;83.00;;;;;;4692936;30;20062;-76
2023/10/11 04:15:49;;;;;;;2.13;1.42;;;15.40;83.00;;;;;;4694699;30;19927;-75
2023/10/11 04:18:36;;;;;;;1.98;1.30;;;15.50;83.10;;;;;;4696188;30;20068;-75
2023/10/11 04:21:16;;;;;;;1.80;1.30;;;15.40;83.00;;;;;;4699793;30;20069;-76
2023/10/11 04:23:45;;;;;;;1.75;1.20;;;15.40;83.00;;;;;;4699029;30;20062;-75
2023/10/11 04:29:17;;;;;;;2.65;1.40;;;15.30;83.00;;;;;;4698469;30;20090;-75
2023/10/11 04:34:23;;;;;;;2.50;1.40;;;15.40;83.20;;;;;;4699582;30;20058;-76
2023/10/11 04:36:55;;;;;;;1.40;1.10;;;15.30;83.20;;;;;;4702001;30;20054;-75
2023/10/11 04:39:27;;;;;;;3.08;1.40;;;15.20;83.10;;;;;;4705034;30;20156;-76
2023/10/11 04:41:57;;;;;;;2.20;1.40;;;15.30;83.20;;;;;;4701729;30;20042;-76
2023/10/11 04:44:23;;;;;;;1.30;1.05;;;15.30;83.20;;;;;;4687027;30;20081;-76
2023/10/11 04:49:30;;;;;;;;;;;15.30;83.30;;;;;;4702088;30;20640;-76
2023/10/11 04:51:57;;;;;;;1.63;1.17;;;15.30;83.20;;;;;;4686259;30;19911;-75
2023/10/11 04:57:06;;;;;;;2.10;1.23;;;15.20;83.20;;;;;;4700301;30;20129;-76
2023/10/11 04:59:36;;;;;;;3.15;1.30;;;15.20;83.30;;;;;;4703474;30;20069;-76
2023/10/11 05:02:11;;;;;;;2.00;1.30;;;15.20;83.30;;;;;;4688097;30;20561;-76
2023/10/11 05:04:44;;;;;;;2.10;1.38;;;15.20;83.40;;;;;;4678373;30;20533;-75
2023/10/11 05:07:12;;;;;;;1.98;1.35;;;15.20;83.40;;;;;;4713052;30;20076;-75
2023/10/11 05:09:39;;;;;;;2.15;1.58;;;15.20;83.30;;;;;;4731575;30;20055;-76
2023/10/11 05:12:08;;;;;;;2.72;1.50;;;15.20;83.40;;;;;;4746852;30;20059;-76
2023/10/11 05:14:39;;;;;;;1.92;1.35;;;15.20;83.30;;;;;;4746356;30;20571;-77
2023/10/11 05:19:56;;;;;;;1.58;1.30;;;15.20;83.30;;;;;;4766650;30;19918;-78
2023/10/11 05:22:30;;;;;;;2.47;1.67;;;15.20;83.20;;;;;;4742808;30;20075;-78
2023/10/11 05:27:56;;;;;;;2.20;1.40;;;15.20;83.20;;;;;;4731421;30;20052;-78
2023/10/11 05:30:29;;;;;;;2.70;1.63;;;15.20;83.20;;;;;;4725304;30;20559;-77
2023/10/11 05:33:15;;;;;;;2.35;1.33;;;15.20;83.20;;;;;;4749921;30;20049;-78
2023/10/11 05:51:56;;;;;;;3.20;1.52;;;15.20;83.20;;;;;;4751485;30;20078;-79
2023/10/11 05:54:22;;;;;;;2.92;1.60;;;15.30;83.30;;;;;;4713083;30;20718;-79
2023/10/11 05:56:49;;;;;;;2.45;1.60;;;15.30;83.30;;;;;;4719410;30;20080;-78
2023/10/11 05:59:15;;;;;;;2.67;1.45;;;15.30;83.20;;;;;;4719533;30;20045;-78
2023/10/11 06:01:44;;;;;;;2.58;1.60;;;15.30;83.20;;;;;;4704295;30;20048;-80
2023/10/11 06:04:13;;;;;;;2.67;1.70;;;15.30;83.20;;;;;;4718700;30;20045;-81
2023/10/11 06:06:45;;;;;;;2.42;1.52;;;15.30;83.20;;;;;;4733248;30;20951;-79
2023/10/11 06:09:18;;;;;;;4.82;2.00;;;15.40;83.20;;;;;;4704699;30;20393;-80
2023/10/11 06:11:51;;;;;;;2.67;1.80;;;15.40;83.20;;;;;;4733234;30;20056;-80
2023/10/11 06:14:18;;;;;;;2.40;1.48;;;15.40;83.20;;;;;;4720637;30;20048;-80
2023/10/11 06:16:49;;;;;;;3.13;1.83;;;15.40;83.20;;;;;;4734014;30;20053;-79
2023/10/11 06:19:16;;;;;;;2.30;1.80;;;15.40;83.10;;;;;;4733072;30;20044;-78
2023/10/11 06:24:30;;;;;;;2.72;1.70;;;15.50;83.20;;;;;;4732717;30;20052;-79
2023/10/11 06:26:56;;;;;;;;;;;15.50;83.10;;;;;;4719368;30;20041;-78
2023/10/11 06:29:23;;;;;;;3.13;1.80;;;15.50;83.10;;;;;;4747246;30;19947;-80
2023/10/11 06:31:52;;;;;;;4.10;1.60;;;15.60;83.10;;;;;;4733508;30;20048;-78
2023/10/11 06:34:24;;;;;;;3.25;1.70;;;15.60;83.10;;;;;;4734225;30;20052;-78
2023/10/11 06:36:51;;;;;;;2.20;1.45;;;15.60;83.00;;;;;;4733299;30;20531;-78
2023/10/11 06:41:57;;;;;;;2.47;1.55;;;15.60;83.10;;;;;;4733555;30;20063;-78
2023/10/11 06:44:23;;;;;;;3.58;1.85;;;15.60;83.10;;;;;;4736041;30;20135;-78
2023/10/11 06:46:50;;;;;;;3.20;1.77;;;15.70;83.20;;;;;;4734816;30;20139;-78
2023/10/11 06:49:16;;;;;;;2.55;1.60;;;15.60;83.10;;;;;;4733199;30;20065;-78
2023/10/11 06:51:42;;;;;;;2.65;1.70;;;15.70;83.10;;;;;;4732663;30;20057;-78
2023/10/11 06:54:08;;;;;;;2.55;1.65;;;15.70;83.10;;;;;;4733821;30;20041;-78
2023/10/11 06:56:38;;;;;;;3.20;1.83;;;15.80;83.10;;;;;;4732383;30;20044;-79
2023/10/11 06:59:04;;;;;;;2.97;1.75;;;15.80;83.10;;;;;;4732934;30;20489;-78
2023/10/11 07:01:34;;;;;;;4.38;2.00;;;15.80;83.00;;;;;;4717954;30;20064;-78
2023/10/11 07:04:00;;;;;;;3.45;1.95;;;15.80;83.00;;;;;;4732750;30;20120;-78
2023/10/11 07:06:25;;;;;;;4.65;1.90;;;15.90;83.00;;;;;;4733514;30;20547;-78
2023/10/11 07:08:53;;;;;;;3.92;1.73;;;15.90;83.00;;;;;;4732465;30;20037;-78
2023/10/11 07:11:50;;;;;;;3.53;1.90;;;16.00;83.00;;;;;;4718015;30;20041;-78
2023/10/11 07:14:14;;;;;;;3.45;1.83;;;16.00;83.00;;;;;;4732259;30;20155;-78
2023/10/11 07:16:44;;;;;;;4.05;1.98;;;16.00;83.00;;;;;;4718279;30;20048;-77
2023/10/11 07:19:11;;;;;;;3.33;1.95;;;16.00;83.00;;;;;;4718012;30;20040;-78
2023/10/11 07:21:52;;;;;;;4.30;2.17;;;16.10;83.10;;;;;;4733570;30;20049;-78
2023/10/11 07:24:19;;;;;;;2.58;1.80;;;16.20;83.10;;;;;;4719846;30;20532;-78
2023/10/11 07:26:48;;;;;;;2.40;1.63;;;16.10;83.10;;;;;;4733750;30;20186;-78
2023/10/11 07:29:16;;;;;;;3.72;2.05;;;16.10;83.10;;;;;;4718254;30;20060;-78
2023/10/11 07:31:49;;;;;;;3.75;1.70;;;16.10;83.20;;;;;;4732258;30;20091;-79
2023/10/11 07:34:18;;;;;;;2.78;1.90;;;16.20;83.20;;;;;;4733321;30;20052;-79
2023/10/11 07:36:45;;;;;;;3.90;1.95;;;16.20;83.20;;;;;;4733302;30;20052;-78
2023/10/11 07:39:20;;;;;;;2.83;1.88;;;16.20;83.10;;;;;;4746516;30;20512;-79
2023/10/11 07:41:51;;;;;;;4.38;2.10;;;16.20;83.20;;;;;;4704608;30;20084;-78
2023/10/11 07:44:18;;;;;;;3.03;2.00;;;16.30;83.20;;;;;;4732280;30;20447;-79
2023/10/11 07:46:45;;;;;;;3.95;1.95;;;16.30;83.20;;;;;;4732084;30;20049;-78
2023/10/11 07:49:16;;;;;;;3.65;2.20;;;16.40;83.30;;;;;;4733667;30;20044;-78
2023/10/11 07:51:42;;;;;;;3.97;1.92;;;16.30;83.30;;;;;;4732268;30;20082;-78
2023/10/11 07:54:19;;;;;;;5.07;2.30;;;16.40;83.30;;;;;;4717588;30;20041;-79
2023/10/11 07:56:46;;;;;;;3.00;1.90;;;16.40;83.30;;;;;;4732236;30;20056;-78
2023/10/11 07:59:12;;;;;;;5.45;2.20;;;16.40;83.30;;;;;;4732665;30;20041;-78
2023/10/11 08:01:45;;;;;;;4.97;2.28;;;16.50;83.40;;;;;;4746389;30;20543;-78
2023/10/11 08:04:17;;;;;;;3.92;2.20;;;16.50;83.40;;;;;;4718378;30;20041;-77
2023/10/11 08:06:44;;;;;;;4.10;1.98;;;16.50;83.50;;;;;;4746297;30;20056;-78
2023/10/11 08:09:18;;;;;;;2.85;1.83;;;16.50;83.50;;;;;;4702714;30;20139;-77
2023/10/11 08:11:48;;;;;;;2.95;1.90;;;16.50;83.60;;;;;;4732110;30;20266;-78
2023/10/11 08:14:15;;;;;;;3.13;1.98;;;16.50;83.70;;;;;;4732098;30;20048;-78
2023/10/11 08:16:42;;;;;;;4.00;2.15;;;16.50;83.70;;;;;;4717235;30;20044;-78
2023/10/11 08:19:08;;;;;;;3.05;1.90;;;16.50;83.70;;;;;;4717314;30;20044;-78
2023/10/11 08:21:36;;;;;;;6.05;2.10;;;16.60;83.80;;;;;;4732970;30;20106;-79
2023/10/11 08:24:04;;;;;;;3.25;2.05;;;16.60;83.80;;;;;;4733035;30;20053;-77
2023/10/11 08:26:32;;;;;;;2.97;1.88;;;16.60;83.80;;;;;;4731475;30;20059;-78
2023/10/11 08:29:05;;;;;;;3.08;2.10;;;16.70;83.80;;;;;;4717563;30;20037;-78
2023/10/11 08:31:35;;;;;;;4.35;2.30;;;16.70;83.80;;;;;;4718458;30;20057;-78
2023/10/11 08:34:03;;;;;;;3.78;2.42;;;16.80;83.70;;;;;;4732582;30;20037;-76
2023/10/11 08:36:33;;;;;;;2.40;1.80;;;16.90;83.60;;;;;;4746045;30;20036;-75
2023/10/11 08:39:03;;;;;;;3.35;2.28;;;17.00;83.40;;;;;;4717456;30;20507;-76
2023/10/11 08:41:30;;;;;;;2.90;1.90;;;17.00;83.30;;;;;;4746034;30;20563;-76
2023/10/11 08:43:59;;;;;;;3.47;1.90;;;17.00;83.30;;;;;;4732627;30;20045;-76
2023/10/11 08:46:31;;;;;;;4.88;2.38;;;17.10;83.40;;;;;;4731459;30;20123;-76
2023/10/11 08:49:00;;;;;;;4.40;2.58;;;17.10;83.40;;;;;;4703709;30;20059;-75
2023/10/11 08:51:36;;;;;;;5.65;2.97;;;17.20;83.40;;;;;;4719791;30;20043;-76
2023/10/11 08:54:11;;;;;;;5.90;2.75;;;17.10;83.40;;;;;;4748882;30;20131;-76
2023/10/11 08:56:38;;;;;;;4.38;2.65;;;17.20;83.60;;;;;;4722013;30;20049;-76
2023/10/11 08:59:06;;;;;;;4.45;2.97;;;17.10;83.50;;;;;;4734584;30;20056;-76
2023/10/11 09:01:36;;;;;;;5.18;2.67;;;17.20;83.70;;;;;;4735499;30;20071;-76
2023/10/11 09:04:11;;;;;;;4.80;2.88;;;17.20;83.70;;;;;;4719988;30;20052;-76
2023/10/11 09:06:40;;;;;;;4.72;3.03;;;17.20;83.90;;;;;;4721130;30;20052;-76
2023/10/11 09:09:07;;;;;;;4.60;3.25;;;17.10;83.90;;;;;;4735456;30;20163;-76
2023/10/11 09:11:32;;;;;;;5.38;3.30;;;17.20;84.10;;;;;;4735361;30;20051;-76
2023/10/11 09:14:12;;;;;;;3.95;2.67;;;17.20;84.10;;;;;;4719386;30;20143;-78
2023/10/11 09:16:40;;;;;;;4.80;2.83;;;17.20;84.30;;;;;;4748459;30;20056;-76
2023/10/11 09:19:06;;;;;;;5.55;3.30;;;17.20;84.30;;;;;;4735147;30;20044;-76
2023/10/11 09:21:35;;;;;;;4.90;3.03;;;17.20;84.30;;;;;;4735544;30;20067;-75
2023/10/11 09:24:03;;;;;;;5.30;3.25;;;17.20;84.40;;;;;;4734171;30;20121;-75
2023/10/11 09:26:37;;;;;;;6.07;3.22;;;17.30;84.40;;;;;;4733677;30;20078;-75
2023/10/11 09:29:04;;;;;;;3.83;2.45;;;17.30;84.40;;;;;;4748265;30;20039;-76
2023/10/11 09:31:32;;;;;;;4.95;3.20;;;17.30;84.40;;;;;;4734673;30;20501;-76
2023/10/11 09:34:02;;;;;;;5.78;3.58;;;17.40;84.50;;;;;;4734684;30;20123;-76
2023/10/11 09:36:28;;;;;;;6.35;3.88;;;17.40;84.50;;;;;;4734879;30;20095;-73
2023/10/11 09:38:55;;;;;;;6.10;4.10;;;17.40;84.60;;;;;;4734718;30;20044;-75
2023/10/11 09:41:38;;;;;;;7.32;4.00;;;17.30;84.70;;;;;;4734986;30;20068;-75
2023/10/11 09:44:06;;;;;;;5.40;3.33;;;17.30;84.80;;;;;;4719928;30;20071;-75
2023/10/11 09:46:34;;;;;;;7.13;3.55;;;17.30;84.80;;;;;;4748755;30;20453;-78
2023/10/11 09:49:02;;;;;;;6.65;3.67;;;17.40;85.00;;;;;;4683254;30;20093;-76
2023/10/11 09:51:29;;;;;;;7.72;4.35;;;17.30;84.90;;;;;;4669192;30;20421;-76
2023/10/11 09:54:01;;;;;;;6.32;3.75;;;17.40;85.00;;;;;;4683732;30;20045;-76
2023/10/11 09:56:39;;;;;;;7.05;3.60;;;17.40;85.10;;;;;;4682386;30;20140;-76
2023/10/11 09:59:26;;;;;;;5.00;3.22;;;17.40;85.20;;;;;;4682663;30;20426;-77
2023/10/11 10:02:03;;;;;;;5.03;3.20;;;17.50;85.30;;;;;;4697960;30;20057;-76
2023/10/11 10:04:55;;;;;;;5.90;3.80;;;17.50;85.30;;;;;;4683375;30;20050;-76
2023/10/11 10:07:32;;;;;;;6.65;3.70;;;17.50;85.30;;;;;;4683135;30;20521;-76
2023/10/11 10:10:01;;;;;;;6.10;3.63;;;17.30;85.20;;;;;;4685205;30;20053;-76
2023/10/11 10:12:40;;;;;;;5.45;3.67;;;17.50;85.40;;;;;;4683764;30;20083;-77
2023/10/11 10:15:09;;;;;;;6.35;3.83;;;17.50;85.40;;;;;;4668867;30;20064;-77
2023/10/11 10:17:37;;;;;;;6.40;3.72;;;17.50;85.40;;;;;;4683385;30;20119;-77
2023/10/11 10:20:41;;;;;;;6.40;3.90;;;17.50;85.50;;;;;;4716862;30;20037;-76
2023/10/11 10:23:22;;;;;;;5.25;3.28;;;17.60;85.60;;;;;;4717436;30;20489;-76
2023/10/11 10:25:50;;;;;;;7.22;3.65;;;17.50;85.60;;;;;;4732698;30;20041;-76
2023/10/11 10:28:52;;;;;;;7.63;4.47;;;17.60;85.70;;;;;;4748052;30;20044;-77
2023/10/11 10:31:21;;;;;;;7.45;4.43;;;17.50;85.70;;;;;;4733210;30;20033;-78
2023/10/11 10:33:51;;;;;;;7.63;4.10;;;17.60;85.80;;;;;;4748100;30;20496;-77
2023/10/11 10:36:37;;;;;;;5.30;3.37;;;17.60;85.80;;;;;;4734375;30;20119;-77
2023/10/11 10:39:36;;;;;;;5.32;3.30;;;17.60;85.80;;;;;;4734009;30;20056;-77
2023/10/11 10:42:12;;;;;;;7.10;3.05;;;17.60;85.80;;;;;;4733849;30;20084;-77
2023/10/11 10:44:49;;;;;;;5.68;3.10;;;17.70;85.90;;;;;;4733609;30;20041;-77
2023/10/11 10:47:21;;;;;;;5.53;3.30;;;17.70;85.90;;;;;;4734027;30;20552;-77
2023/10/11 10:49:51;;;;;;;6.00;3.67;;;17.70;85.90;;;;;;4718630;30;20079;-77
2023/10/11 10:52:18;;;;;;;5.22;3.15;;;17.80;85.90;;;;;;4719513;30;20059;-77
2023/10/11 10:55:02;;;;;;;8.27;3.70;;;17.70;85.90;;;;;;4732186;30;20535;-77
2023/10/11 10:57:31;;;;;;;7.63;3.60;;;17.70;86.00;;;;;;4729682;30;20540;-77
2023/10/11 10:59:59;;;;;;;6.85;3.83;;;17.80;86.10;;;;;;4731811;30;20045;-77
2023/10/11 11:02:25;;;;;;;7.75;3.90;;;17.80;86.10;;;;;;4717401;30;20041;-77
2023/10/11 11:04:50;;;;;;;5.82;3.50;;;17.80;86.00;;;;;;4731845;30;20048;-77
2023/10/11 11:07:24;;;;;;;5.60;3.42;;;17.80;86.70;;;;;;4717080;30;20577;-78
2023/10/11 11:09:54;;;;;;;6.35;3.38;;;17.90;86.20;;;;;;4731926;30;20626;-77
2023/10/11 11:12:28;;;;;;;4.45;2.85;;;17.80;86.20;;;;;;4716597;30;20055;-77
2023/10/11 11:14:56;;;;;;;7.05;3.58;;;17.90;86.20;;;;;;4702452;30;20512;-76
2023/10/11 11:17:23;;;;;;;7.45;3.35;;;17.90;86.20;;;;;;4732145;30;20052;-76
2023/10/11 11:20:12;;;;;;;7.38;3.30;;;17.90;86.30;;;;;;4717279;30;20123;-76
2023/10/11 11:22:39;;;;;;;5.32;3.25;;;17.90;86.30;;;;;;4717175;30;20090;-76
2023/10/11 11:25:29;;;;;;;5.60;3.55;;;18.00;86.40;;;;;;4717317;30;20084;-76
2023/10/11 11:28:16;;;;;;;5.55;3.20;;;18.00;86.40;;;;;;4718436;30;20505;-76
2023/10/11 11:31:09;;;;;;;5.25;3.28;;;18.00;86.30;;;;;;4717406;30;20143;-76
2023/10/11 11:33:36;;;;;;;5.25;3.30;;;18.10;86.30;;;;;;4735515;30;20120;-76
2023/10/11 11:36:11;;;;;;;7.00;3.35;;;18.20;86.00;;;;;;4733242;30;20084;-76
2023/10/11 11:38:45;;;;;;;4.90;2.90;;;18.30;85.90;;;;;;4718795;30;20061;-76
2023/10/11 11:41:16;;;;;;;8.95;3.28;;;18.50;85.60;;;;;;4733693;30;20095;-76
2023/10/11 11:43:46;;;;;;;4.63;3.05;;;18.60;85.40;;;;;;4732702;30;20051;-75
2023/10/11 11:46:15;;;;;;;4.80;2.88;;;18.50;85.30;;;;;;4746350;30;20048;-76
2023/10/11 11:48:41;;;;;;;5.70;3.15;;;18.60;85.20;;;;;;4733239;30;20139;-75
2023/10/11 11:51:16;;;;;;;5.25;2.88;;;18.60;85.30;;;;;;4733282;30;20056;-77
2023/10/11 11:53:45;;;;;;;4.07;2.63;;;18.70;85.40;;;;;;4722260;30;20520;-76
2023/10/11 11:56:12;;;;;;;4.18;2.80;;;18.70;85.40;;;;;;4719111;30;20124;-75
2023/10/11 11:58:45;;;;;;;4.35;2.85;;;18.80;85.40;;;;;;4733828;30;20056;-76
2023/10/11 12:01:17;;;;;;;4.28;2.60;;;18.80;85.50;;;;;;4732443;30;20048;-75
2023/10/11 12:03:52;;;;;;;7.57;3.30;;;18.80;85.40;;;;;;4717696;30;20037;-75
2023/10/11 12:06:26;;;;;;;5.35;2.80;;;18.90;85.40;;;;;;4733570;30;20131;-75
2023/10/11 12:09:02;;;;;;;4.85;3.13;;;18.80;85.30;;;;;;4732604;30;20088;-76
2023/10/11 12:11:29;;;;;;;4.28;2.80;;;18.90;85.40;;;;;;4733483;30;20056;-76
2023/10/11 12:14:00;;;;;;;5.72;2.03;;;18.90;85.40;;;;;;4732401;30;20049;-76
2023/10/11 12:16:26;;;;;;;3.80;2.45;;;18.90;85.40;;;;;;4733114;30;20407;-76
2023/10/11 12:18:58;;;;;;;3.15;2.22;;;19.00;85.40;;;;;;4717340;30;20056;-75
2023/10/11 12:21:27;;;;;;;5.03;2.35;;;19.00;85.30;;;;;;4732374;30;20500;-76
2023/10/11 12:23:52;;;;;;;5.03;3.03;;;19.10;85.30;;;;;;4733963;30;20111;-77
2023/10/11 12:26:20;;;;;;;4.07;2.70;;;19.10;85.30;;;;;;4734753;30;20052;-76
2023/10/11 12:28:47;;;;;;;4.15;2.78;;;19.10;85.40;;;;;;4720023;30;20135;-75
2023/10/11 12:31:13;;;;;;;3.22;2.10;;;19.10;85.50;;;;;;4749555;30;20053;-75
2023/10/11 12:33:39;;;;;;;5.15;2.63;;;19.10;85.50;;;;;;4718295;30;20381;-75
2023/10/11 12:36:06;;;;;;;3.72;2.40;;;19.00;85.50;;;;;;4734572;30;20053;-75
2023/10/11 12:38:36;;;;;;;3.35;2.10;;;19.00;85.60;;;;;;4735894;30;20061;-76
2023/10/11 12:41:04;;;;;;;3.80;2.43;;;19.10;85.70;;;;;;4720194;30;20083;-76
2023/10/11 12:43:30;;;;;;;4.97;2.67;;;19.00;85.70;;;;;;4734552;30;20068;-77
2023/10/11 12:45:56;;;;;;;6.15;2.42;;;19.00;85.80;;;;;;4718414;30;20562;-75
2023/10/11 12:48:24;;;;;;;4.97;2.67;;;18.90;85.90;;;;;;4734768;30;20048;-76
2023/10/11 12:50:49;;;;;;;5.00;2.70;;;19.00;86.00;;;;;;4734887;30;20040;-76
2023/10/11 12:53:15;;;;;;;3.15;2.25;;;18.90;86.00;;;;;;4737149;30;20469;-76
2023/10/11 12:55:42;;;;;;;3.25;2.10;;;18.90;86.10;;;;;;4735997;30;20041;-75
2023/10/11 12:58:11;;;;;;;5.03;2.53;;;18.90;86.20;;;;;;4720446;30;20060;-75
2023/10/11 13:00:47;;;;;;;3.97;2.38;;;18.90;86.30;;;;;;4748992;30;20147;-75
2023/10/11 13:03:26;;;;;;;4.25;2.50;;;18.80;86.40;;;;;;4749242;30;20060;-75
2023/10/11 13:05:52;;;;;;;4.22;2.45;;;18.80;86.50;;;;;;4734701;30;20057;-76
2023/10/11 13:08:24;;;;;;;6.20;2.47;;;18.80;86.50;;;;;;4736152;30;20049;-75
2023/10/11 13:10:51;;;;;;;4.07;2.55;;;18.80;86.50;;;;;;4733323;30;20049;-77
2023/10/11 13:13:17;;;;;;;4.60;2.55;;;18.80;86.50;;;;;;4747419;30;20052;-76
2023/10/11 13:18:37;;;;;;;5.25;3.08;;;18.80;86.60;;;;;;4723461;30;20057;-75
2023/10/11 13:21:04;;;;;;;4.93;3.08;;;18.80;86.60;;;;;;4701423;30;20135;-77
2023/10/11 13:23:30;;;;;;;5.82;3.42;;;18.70;86.60;;;;;;4701405;30;20153;-75
2023/10/11 13:26:00;;;;;;;5.75;3.33;;;18.70;86.60;;;;;;4702765;30;20049;-76
2023/10/11 13:28:27;;;;;;;6.20;3.28;;;18.70;86.60;;;;;;4702101;30;20065;-75
2023/10/11 13:30:56;;;;;;;4.75;3.15;;;18.70;86.70;;;;;;4701772;30;20057;-76
2023/10/11 13:33:22;;;;;;;6.65;3.40;;;18.70;86.70;;;;;;4686471;30;20053;-76
2023/10/11 13:35:48;;;;;;;7.35;4.10;;;18.70;86.70;;;;;;4690846;30;20113;-77
2023/10/11 13:38:17;;;;;;;5.32;3.60;;;18.70;86.70;;;;;;4689302;30;20089;-75
2023/10/11 13:40:45;;;;;;;5.32;3.63;;;18.70;86.70;;;;;;4701905;30;20044;-74
2023/10/11 13:43:13;;;;;;;6.15;3.45;;;18.80;86.70;;;;;;4715447;30;20517;-75
2023/10/11 13:45:41;;;;;;;7.43;3.90;;;18.80;86.60;;;;;;4715581;30;20464;-75
2023/10/11 13:48:11;;;;;;;5.78;3.25;;;18.80;86.50;;;;;;4687334;30;20049;-77
2023/10/11 13:50:39;;;;;;;5.47;3.45;;;18.80;86.60;;;;;;4689499;30;20120;-77